sensor_id;sensor_type;location;lat;lon;timestamp;pressure;altitude;pressure_sealevel;temperature;humidity
55470;BME280;41334;47.872;16.384;2023-11-21T00:02:31;98590.47;;;3.70;82.04
55470;BME280;41334;47.872;16.384;2023-11-21T00:07:32;98585.84;;;3.66;82.47
55470;BME280;41334;47.872;16.384;2023-11-21T00:12:34;98589.75;;;3.60;83.22
55470;BME280;41334;47.872;16.384;2023-11-21T00:17:40;98585.56;;;3.67;82.72
55470;BME280;41334;47.872;16.384;2023-11-21T00:22:42;98574.44;;;3.53;83.29
55470;BME280;41334;47.872;16.384;2023-11-21T00:27:45;98580.50;;;3.50;83.39
55470;BME280;41334;47.872;16.384;2023-11-21T00:32:47;98575.53;;;3.52;82.93
55470;BME280;41334;47.872;16.384;2023-11-21T00:37:49;98583.25;;;3.50;83.14
55470;BME280;41334;47.872;16.384;2023-11-21T00:42:51;98588.97;;;3.54;82.71
55470;BME280;41334;47.872;16.384;2023-11-21T00:47:53;98586.50;;;3.52;82.93
55470;BME280;41334;47.872;16.384;2023-11-21T00:52:55;98588.41;;;3.52;82.54
55470;BME280;41334;47.872;16.384;2023-11-21T00:57:57;98578.06;;;3.49;82.88
55470;BME280;41334;47.872;16.384;2023-11-21T01:03:00;98566.88;;;3.40;83.40
55470;BME280;41334;47.872;16.384;2023-11-21T01:08:02;98560.38;;;3.31;83.90
55470;BME280;41334;47.872;16.384;2023-11-21T01:13:04;98553.81;;;3.32;84.44
55470;BME280;41334;47.872;16.384;2023-11-21T01:18:07;98532.09;;;3.41;84.62
55470;BME280;41334;47.872;16.384;2023-11-21T01:23:10;98540.72;;;3.58;84.37
55470;BME280;41334;47.872;16.384;2023-11-21T01:28:12;98543.69;;;3.62;84.55
55470;BME280;41334;47.872;16.384;2023-11-21T01:33:14;98541.66;;;3.72;83.93
55470;BME280;41334;47.872;16.384;2023-11-21T01:38:17;98532.03;;;3.75;83.91
55470;BME280;41334;47.872;16.384;2023-11-21T01:43:19;98533.09;;;3.79;82.88
55470;BME280;41334;47.872;16.384;2023-11-21T01:48:21;98517.72;;;3.83;82.59
55470;BME280;41334;47.872;16.384;2023-11-21T01:53:25;98509.50;;;3.83;83.15
55470;BME280;41334;47.872;16.384;2023-11-21T01:58:28;98511.78;;;3.76;83.45
55470;BME280;41334;47.872;16.384;2023-11-21T02:03:30;98511.03;;;3.70;82.99
55470;BME280;41334;47.872;16.384;2023-11-21T02:08:32;98520.06;;;3.71;83.13
55470;BME280;41334;47.872;16.384;2023-11-21T02:13:34;98502.25;;;3.68;83.45
55470;BME280;41334;47.872;16.384;2023-11-21T02:18:36;98495.97;;;3.68;83.41
55470;BME280;41334;47.872;16.384;2023-11-21T02:23:38;98492.13;;;3.69;83.43
55470;BME280;41334;47.872;16.384;2023-11-21T02:28:44;98489.91;;;3.71;83.13
55470;BME280;41334;47.872;16.384;2023-11-21T02:33:46;98484.00;;;3.59;83.32
55470;BME280;41334;47.872;16.384;2023-11-21T02:38:47;98478.47;;;3.64;83.92
55470;BME280;41334;47.872;16.384;2023-11-21T02:43:49;98474.56;;;3.70;83.79
55470;BME280;41334;47.872;16.384;2023-11-21T02:48:51;98490.66;;;3.76;83.86
55470;BME280;41334;47.872;16.384;2023-11-21T02:53:56;98491.38;;;3.87;83.81
55470;BME280;41334;47.872;16.384;2023-11-21T02:59:02;98491.66;;;3.86;84.42
55470;BME280;41334;47.872;16.384;2023-11-21T03:04:04;98495.22;;;3.86;84.84
55470;BME280;41334;47.872;16.384;2023-11-21T03:09:07;98484.59;;;3.79;85.08
55470;BME280;41334;47.872;16.384;2023-11-21T03:14:09;98488.91;;;3.86;84.61
55470;BME280;41334;47.872;16.384;2023-11-21T03:19:13;98489.44;;;3.88;85.17
55470;BME280;41334;47.872;16.384;2023-11-21T03:24:16;98497.94;;;3.91;84.69
55470;BME280;41334;47.872;16.384;2023-11-21T03:29:19;98500.41;;;3.88;85.04
55470;BME280;41334;47.872;16.384;2023-11-21T03:34:26;98496.63;;;3.84;84.81
55470;BME280;41334;47.872;16.384;2023-11-21T03:39:29;98489.22;;;3.84;84.31
55470;BME280;41334;47.872;16.384;2023-11-21T03:44:31;98482.66;;;3.80;84.26
55470;BME280;41334;47.872;16.384;2023-11-21T03:49:33;98473.94;;;3.78;84.27
55470;BME280;41334;47.872;16.384;2023-11-21T03:54:35;98466.00;;;3.76;83.95
55470;BME280;41334;47.872;16.384;2023-11-21T03:59:41;98475.47;;;3.65;84.09
55470;BME280;41334;47.872;16.384;2023-11-21T04:04:43;98481.31;;;3.53;84.31
55470;BME280;41334;47.872;16.384;2023-11-21T04:09:45;98495.31;;;3.52;85.18
55470;BME280;41334;47.872;16.384;2023-11-21T04:14:47;98500.28;;;3.50;84.83
55470;BME280;41334;47.872;16.384;2023-11-21T04:19:49;98492.22;;;3.59;84.87
55470;BME280;41334;47.872;16.384;2023-11-21T04:24:52;98489.25;;;3.79;83.80
55470;BME280;41334;47.872;16.384;2023-11-21T04:29:54;98494.59;;;3.94;82.55
55470;BME280;41334;47.872;16.384;2023-11-21T04:34:55;98498.75;;;3.92;82.48
55470;BME280;41334;47.872;16.384;2023-11-21T04:39:57;98501.22;;;3.88;83.35
55470;BME280;41334;47.872;16.384;2023-11-21T04:44:59;98501.75;;;3.90;83.32
55470;BME280;41334;47.872;16.384;2023-11-21T04:50:27;98500.97;;;3.85;83.41
55470;BME280;41334;47.872;16.384;2023-11-21T05:01:44;98492.56;;;3.52;84.07
55470;BME280;41334;47.872;16.384;2023-11-21T05:06:46;98495.94;;;3.44;84.32
55470;BME280;41334;47.872;16.384;2023-11-21T05:11:49;98510.47;;;3.44;85.14
55470;BME280;41334;47.872;16.384;2023-11-21T05:16:51;98511.97;;;3.56;85.41
55470;BME280;41334;47.872;16.384;2023-11-21T05:21:53;98509.34;;;3.69;83.61
55470;BME280;41334;47.872;16.384;2023-11-21T05:26:55;98512.41;;;3.68;82.61
55470;BME280;41334;47.872;16.384;2023-11-21T05:31:57;98520.16;;;3.61;82.79
55470;BME280;41334;47.872;16.384;2023-11-21T05:36:59;98520.00;;;3.47;83.42
55470;BME280;41334;47.872;16.384;2023-11-21T05:42:01;98533.31;;;3.30;83.93
55470;BME280;41334;47.872;16.384;2023-11-21T05:47:03;98539.38;;;3.21;84.58
55470;BME280;41334;47.872;16.384;2023-11-21T05:52:05;98553.31;;;3.25;84.19
55470;BME280;41334;47.872;16.384;2023-11-21T05:57:07;98559.28;;;3.32;84.72
55470;BME280;41334;47.872;16.384;2023-11-21T06:13:41;98554.09;;;3.65;84.41
55470;BME280;41334;47.872;16.384;2023-11-21T06:18:56;98558.97;;;3.68;83.94
55470;BME280;41334;47.872;16.384;2023-11-21T06:43:47;98586.16;;;4.17;82.51
55470;BME280;41334;47.872;16.384;2023-11-21T06:50:19;98599.13;;;4.36;81.79
55470;BME280;41334;47.872;16.384;2023-11-21T06:55:55;98605.34;;;4.41;81.29
55470;BME280;41334;47.872;16.384;2023-11-21T07:01:25;98605.31;;;4.46;80.93
55470;BME280;41334;47.872;16.384;2023-11-21T07:06:58;98602.38;;;4.62;80.65
55470;BME280;41334;47.872;16.384;2023-11-21T07:13:05;98615.00;;;4.81;79.66
55470;BME280;41334;47.872;16.384;2023-11-21T07:18:26;98610.94;;;4.98;79.23
55470;BME280;41334;47.872;16.384;2023-11-21T07:24:40;98617.97;;;5.23;78.97
55470;BME280;41334;47.872;16.384;2023-11-21T07:30:13;98605.56;;;5.44;78.47
55470;BME280;41334;47.872;16.384;2023-11-21T07:36:19;98599.91;;;5.54;78.19
55470;BME280;41334;47.872;16.384;2023-11-21T07:41:42;98598.44;;;5.62;78.00
55470;BME280;41334;47.872;16.384;2023-11-21T07:47:19;98605.88;;;5.75;76.09
55470;BME280;41334;47.872;16.384;2023-11-21T07:52:40;98608.47;;;5.85;75.28
55470;BME280;41334;47.872;16.384;2023-11-21T07:57:57;98620.78;;;5.88;74.95
55470;BME280;41334;47.872;16.384;2023-11-21T08:03:21;98618.41;;;5.81;75.48
55470;BME280;41334;47.872;16.384;2023-11-21T08:08:26;98619.22;;;5.82;76.25
55470;BME280;41334;47.872;16.384;2023-11-21T08:13:32;98629.41;;;5.81;76.72
55470;BME280;41334;47.872;16.384;2023-11-21T08:18:34;98625.34;;;5.79;76.40
55470;BME280;41334;47.872;16.384;2023-11-21T08:23:40;98620.03;;;5.82;76.23
55470;BME280;41334;47.872;16.384;2023-11-21T08:29:00;98614.19;;;5.89;75.78
55470;BME280;41334;47.872;16.384;2023-11-21T08:34:28;98624.72;;;6.28;74.76
55470;BME280;41334;47.872;16.384;2023-11-21T08:39:40;98617.03;;;6.58;73.65
55470;BME280;41334;47.872;16.384;2023-11-21T08:44:53;98611.66;;;7.16;72.93
55470;BME280;41334;47.872;16.384;2023-11-21T08:50:10;98618.03;;;7.26;72.62
55470;BME280;41334;47.872;16.384;2023-11-21T08:55:21;98617.56;;;7.46;72.78
55470;BME280;41334;47.872;16.384;2023-11-21T09:00:27;98621.13;;;7.47;71.30
55470;BME280;41334;47.872;16.384;2023-11-21T09:05:31;98620.84;;;7.48;69.29
55470;BME280;41334;47.872;16.384;2023-11-21T09:10:39;98628.97;;;7.76;68.55
55470;BME280;41334;47.872;16.384;2023-11-21T09:15:44;98617.25;;;7.92;67.99
55470;BME280;41334;47.872;16.384;2023-11-21T09:20:48;98628.19;;;8.06;67.55
55470;BME280;41334;47.872;16.384;2023-11-21T09:25:50;98617.31;;;8.32;67.71
55470;BME280;41334;47.872;16.384;2023-11-21T09:31:04;98611.75;;;8.55;66.92
55470;BME280;41334;47.872;16.384;2023-11-21T09:36:13;98616.00;;;8.69;66.98
55470;BME280;41334;47.872;16.384;2023-11-21T09:41:52;98616.66;;;8.66;67.35
55470;BME280;41334;47.872;16.384;2023-11-21T09:46:59;98613.56;;;8.68;67.24
55470;BME280;41334;47.872;16.384;2023-11-21T09:52:02;98604.66;;;8.71;66.59
55470;BME280;41334;47.872;16.384;2023-11-21T09:57:09;98591.34;;;8.90;66.18
55470;BME280;41334;47.872;16.384;2023-11-21T10:02:16;98599.81;;;8.94;65.13
55470;BME280;41334;47.872;16.384;2023-11-21T10:07:21;98589.44;;;9.25;64.93
55470;BME280;41334;47.872;16.384;2023-11-21T10:12:23;98595.47;;;9.27;65.55
55470;BME280;41334;47.872;16.384;2023-11-21T10:17:28;98588.31;;;9.35;64.80
55470;BME280;41334;47.872;16.384;2023-11-21T10:22:42;98590.44;;;9.30;65.16
55470;BME280;41334;47.872;16.384;2023-11-21T10:27:47;98584.75;;;9.35;64.34
55470;BME280;41334;47.872;16.384;2023-11-21T10:32:50;98581.59;;;9.71;64.83
55470;BME280;41334;47.872;16.384;2023-11-21T10:38:00;98583.41;;;9.84;63.88
55470;BME280;41334;47.872;16.384;2023-11-21T10:43:09;98577.00;;;10.10;62.45
55470;BME280;41334;47.872;16.384;2023-11-21T10:48:15;98568.75;;;10.39;62.92
55470;BME280;41334;47.872;16.384;2023-11-21T10:53:21;98566.78;;;9.75;62.83
55470;BME280;41334;47.872;16.384;2023-11-21T10:58:23;98562.56;;;9.69;64.36
55470;BME280;41334;47.872;16.384;2023-11-21T11:03:25;98576.09;;;9.53;64.18
55470;BME280;41334;47.872;16.384;2023-11-21T11:08:27;98561.63;;;9.48;63.38
55470;BME280;41334;47.872;16.384;2023-11-21T11:13:30;98560.28;;;9.71;63.69
55470;BME280;41334;47.872;16.384;2023-11-21T11:18:33;98552.84;;;9.54;62.82
55470;BME280;41334;47.872;16.384;2023-11-21T11:29:33;98564.22;;;9.62;60.53
55470;BME280;41334;47.872;16.384;2023-11-21T11:34:44;98554.44;;;9.90;61.65
55470;BME280;41334;47.872;16.384;2023-11-21T11:39:48;98562.75;;;9.82;61.71
55470;BME280;41334;47.872;16.384;2023-11-21T11:44:51;98551.97;;;9.71;61.33
55470;BME280;41334;47.872;16.384;2023-11-21T11:50:11;98565.16;;;9.74;62.66
55470;BME280;41334;47.872;16.384;2023-11-21T11:55:25;98566.00;;;9.58;63.06
55470;BME280;41334;47.872;16.384;2023-11-21T12:05:35;98582.94;;;9.21;65.20
55470;BME280;41334;47.872;16.384;2023-11-21T12:10:41;98571.03;;;8.95;65.00
55470;BME280;41334;47.872;16.384;2023-11-21T12:15:44;98583.53;;;8.84;65.32
55470;BME280;41334;47.872;16.384;2023-11-21T12:20:47;98579.66;;;8.93;64.85
55470;BME280;41334;47.872;16.384;2023-11-21T12:25:52;98584.41;;;9.10;64.75
55470;BME280;41334;47.872;16.384;2023-11-21T12:30:57;98586.53;;;9.13;63.87
55470;BME280;41334;47.872;16.384;2023-11-21T12:36:16;98583.56;;;9.18;63.49
55470;BME280;41334;47.872;16.384;2023-11-21T12:41:18;98573.00;;;9.29;64.51
55470;BME280;41334;47.872;16.384;2023-11-21T12:46:20;98575.28;;;9.44;64.12
55470;BME280;41334;47.872;16.384;2023-11-21T12:51:23;98567.47;;;9.72;63.44
55470;BME280;41334;47.872;16.384;2023-11-21T12:56:25;98572.66;;;9.65;nan
55470;BME280;41334;47.872;16.384;2023-11-21T13:01:27;98575.09;;;9.75;63.20
55470;BME280;41334;47.872;16.384;2023-11-21T13:06:31;98572.84;;;9.69;64.07
55470;BME280;41334;47.872;16.384;2023-11-21T13:11:37;98564.56;;;9.51;63.97
55470;BME280;41334;47.872;16.384;2023-11-21T13:16:39;98563.09;;;9.37;63.75
55470;BME280;41334;47.872;16.384;2023-11-21T13:21:47;98564.56;;;9.25;65.08
55470;BME280;41334;47.872;16.384;2023-11-21T13:26:50;98569.63;;;9.15;64.68
55470;BME280;41334;47.872;16.384;2023-11-21T13:31:52;98561.47;;;9.10;64.58
55470;BME280;41334;47.872;16.384;2023-11-21T13:36:54;98566.84;;;8.97;65.76
55470;BME280;41334;47.872;16.384;2023-11-21T13:42:00;98576.44;;;9.09;65.31
55470;BME280;41334;47.872;16.384;2023-11-21T13:47:03;98590.25;;;9.09;65.16
55470;BME280;41334;47.872;16.384;2023-11-21T13:52:07;98589.44;;;9.17;65.83
55470;BME280;41334;47.872;16.384;2023-11-21T13:57:09;98588.63;;;8.99;65.71
55470;BME280;41334;47.872;16.384;2023-11-21T14:02:14;98585.34;;;8.88;67.46
55470;BME280;41334;47.872;16.384;2023-11-21T14:07:21;98591.66;;;8.71;67.61
55470;BME280;41334;47.872;16.384;2023-11-21T14:12:51;98594.03;;;8.64;67.76
55470;BME280;41334;47.872;16.384;2023-11-21T14:17:54;98584.75;;;8.52;67.74
55470;BME280;41334;47.872;16.384;2023-11-21T14:22:56;98581.13;;;8.34;69.20
55470;BME280;41334;47.872;16.384;2023-11-21T14:27:59;98585.16;;;8.05;69.95
55470;BME280;41334;47.872;16.384;2023-11-21T14:33:02;98584.41;;;7.82;70.63
55470;BME280;41334;47.872;16.384;2023-11-21T14:38:04;98588.16;;;7.64;71.46
55470;BME280;41334;47.872;16.384;2023-11-21T14:43:06;98598.06;;;7.42;72.57
55470;BME280;41334;47.872;16.384;2023-11-21T14:48:08;98603.06;;;7.18;73.46
55470;BME280;41334;47.872;16.384;2023-11-21T14:53:18;98617.28;;;6.98;73.89
55470;BME280;41334;47.872;16.384;2023-11-21T14:58:40;98610.25;;;6.78;75.00
55470;BME280;41334;47.872;16.384;2023-11-21T15:03:42;98615.28;;;6.62;75.40
55470;BME280;41334;47.872;16.384;2023-11-21T15:08:56;98613.06;;;6.36;76.27
55470;BME280;41334;47.872;16.384;2023-11-21T15:14:18;98625.22;;;6.17;76.96
55470;BME280;41334;47.872;16.384;2023-11-21T15:19:25;98631.09;;;5.96;77.83
55470;BME280;41334;47.872;16.384;2023-11-21T15:24:28;98628.19;;;5.87;78.13
55470;BME280;41334;47.872;16.384;2023-11-21T15:29:30;98637.25;;;5.88;78.35
55470;BME280;41334;47.872;16.384;2023-11-21T15:34:32;98627.66;;;6.04;78.37
55470;BME280;41334;47.872;16.384;2023-11-21T15:39:34;98633.06;;;6.23;77.70
55470;BME280;41334;47.872;16.384;2023-11-21T15:44:36;98638.38;;;6.33;77.31
55470;BME280;41334;47.872;16.384;2023-11-21T15:49:39;98641.44;;;6.32;77.25
55470;BME280;41334;47.872;16.384;2023-11-21T15:54:41;98650.63;;;6.41;76.90
55470;BME280;41334;47.872;16.384;2023-11-21T15:59:44;98655.91;;;6.24;77.52
55470;BME280;41334;47.872;16.384;2023-11-21T16:04:48;98656.47;;;6.07;77.66
55470;BME280;41334;47.872;16.384;2023-11-21T16:09:50;98667.81;;;5.86;77.83
55470;BME280;41334;47.872;16.384;2023-11-21T16:14:52;98676.09;;;5.68;78.62
55470;BME280;41334;47.872;16.384;2023-11-21T16:19:54;98677.53;;;5.46;78.98
55470;BME280;41334;47.872;16.384;2023-11-21T16:24:57;98695.69;;;5.23;80.04
55470;BME280;41334;47.872;16.384;2023-11-21T16:29:59;98694.88;;;5.04;80.86
55470;BME280;41334;47.872;16.384;2023-11-21T16:35:02;98697.63;;;5.04;81.26
55470;BME280;41334;47.872;16.384;2023-11-21T16:40:05;98716.66;;;5.19;81.34
55470;BME280;41334;47.872;16.384;2023-11-21T16:45:12;98711.75;;;5.35;80.66
55470;BME280;41334;47.872;16.384;2023-11-21T16:50:14;98725.63;;;5.44;80.39
55470;BME280;41334;47.872;16.384;2023-11-21T16:55:16;98733.44;;;5.55;80.21
55470;BME280;41334;47.872;16.384;2023-11-21T17:00:18;98734.63;;;5.68;79.33
55470;BME280;41334;47.872;16.384;2023-11-21T17:05:24;98739.25;;;5.73;79.09
55470;BME280;41334;47.872;16.384;2023-11-21T17:10:27;98736.84;;;5.66;78.73
55470;BME280;41334;47.872;16.384;2023-11-21T17:15:28;98749.78;;;5.66;78.91
55470;BME280;41334;47.872;16.384;2023-11-21T17:20:30;98737.66;;;5.67;79.20
55470;BME280;41334;47.872;16.384;2023-11-21T17:25:32;98735.22;;;5.65;78.89
55470;BME280;41334;47.872;16.384;2023-11-21T17:30:34;98741.41;;;5.57;79.16
55470;BME280;41334;47.872;16.384;2023-11-21T17:35:39;98749.91;;;5.55;79.66
55470;BME280;41334;47.872;16.384;2023-11-21T17:40:41;98756.78;;;5.58;79.32
55470;BME280;41334;47.872;16.384;2023-11-21T17:45:43;98760.63;;;5.57;79.31
55470;BME280;41334;47.872;16.384;2023-11-21T17:50:46;98756.69;;;5.63;79.35
55470;BME280;41334;47.872;16.384;2023-11-21T17:55:47;98756.97;;;5.61;79.10
55470;BME280;41334;47.872;16.384;2023-11-21T18:00:49;98755.34;;;5.60;79.19
55470;BME280;41334;47.872;16.384;2023-11-21T18:05:51;98759.97;;;5.65;79.72
55470;BME280;41334;47.872;16.384;2023-11-21T18:10:55;98751.19;;;5.63;79.47
55470;BME280;41334;47.872;16.384;2023-11-21T18:15:59;98762.91;;;5.50;79.44
55470;BME280;41334;47.872;16.384;2023-11-21T18:21:02;98770.47;;;5.39;79.51
55470;BME280;41334;47.872;16.384;2023-11-21T18:26:04;98777.69;;;5.35;79.88
55470;BME280;41334;47.872;16.384;2023-11-21T18:31:06;98781.66;;;5.24;80.16
55470;BME280;41334;47.872;16.384;2023-11-21T18:36:10;98777.81;;;5.25;80.16
55470;BME280;41334;47.872;16.384;2023-11-21T18:41:19;98778.78;;;5.34;80.62
55470;BME280;41334;47.872;16.384;2023-11-21T18:46:22;98775.97;;;5.39;80.44
55470;BME280;41334;47.872;16.384;2023-11-21T18:51:24;98782.75;;;5.47;79.96
55470;BME280;41334;47.872;16.384;2023-11-21T18:56:26;98787.19;;;5.43;81.28
55470;BME280;41334;47.872;16.384;2023-11-21T19:01:31;98778.16;;;5.61;80.59
55470;BME280;41334;47.872;16.384;2023-11-21T19:06:33;98779.56;;;5.58;81.06
55470;BME280;41334;47.872;16.384;2023-11-21T19:11:35;98787.81;;;5.58;81.41
55470;BME280;41334;47.872;16.384;2023-11-21T19:16:37;98796.00;;;5.64;81.87
55470;BME280;41334;47.872;16.384;2023-11-21T19:21:39;98802.13;;;5.55;82.75
55470;BME280;41334;47.872;16.384;2023-11-21T19:26:44;98801.69;;;5.48;83.12
55470;BME280;41334;47.872;16.384;2023-11-21T19:31:50;98804.03;;;5.36;83.78
55470;BME280;41334;47.872;16.384;2023-11-21T19:36:52;98801.06;;;5.32;83.70
55470;BME280;41334;47.872;16.384;2023-11-21T19:41:54;98808.72;;;5.35;83.21
55470;BME280;41334;47.872;16.384;2023-11-21T19:47:03;98817.53;;;5.32;83.59
55470;BME280;41334;47.872;16.384;2023-11-21T19:52:05;98823.84;;;5.33;83.59
55470;BME280;41334;47.872;16.384;2023-11-21T19:57:10;98823.84;;;5.33;83.33
55470;BME280;41334;47.872;16.384;2023-11-21T20:02:15;98827.59;;;5.42;82.48
55470;BME280;41334;47.872;16.384;2023-11-21T20:07:17;98830.41;;;5.37;82.39
55470;BME280;41334;47.872;16.384;2023-11-21T20:18:03;98840.63;;;5.31;81.54
55470;BME280;41334;47.872;16.384;2023-11-21T20:23:04;98848.00;;;5.36;81.57
55470;BME280;41334;47.872;16.384;2023-11-21T20:33:37;98850.44;;;5.38;82.45
55470;BME280;41334;47.872;16.384;2023-11-21T20:38:39;98857.06;;;5.37;82.90
55470;BME280;41334;47.872;16.384;2023-11-21T20:43:41;98856.34;;;5.26;82.08
55470;BME280;41334;47.872;16.384;2023-11-21T20:48:43;98853.34;;;4.98;82.60
55470;BME280;41334;47.872;16.384;2023-11-21T20:53:46;98852.28;;;4.65;83.39
55470;BME280;41334;47.872;16.384;2023-11-21T20:58:48;98864.28;;;4.40;84.30
55470;BME280;41334;47.872;16.384;2023-11-21T21:03:50;98865.22;;;4.25;85.07
55470;BME280;41334;47.872;16.384;2023-11-21T21:08:52;98868.50;;;4.22;85.63
55470;BME280;41334;47.872;16.384;2023-11-21T21:13:54;98867.44;;;4.23;85.22
55470;BME280;41334;47.872;16.384;2023-11-21T21:18:56;98871.56;;;4.21;85.14
55470;BME280;41334;47.872;16.384;2023-11-21T21:24:00;98879.25;;;4.19;85.26
55470;BME280;41334;47.872;16.384;2023-11-21T21:29:02;98877.53;;;4.28;84.99
55470;BME280;41334;47.872;16.384;2023-11-21T21:34:05;98879.38;;;4.38;84.46
55470;BME280;41334;47.872;16.384;2023-11-21T21:39:07;98889.38;;;4.23;84.19
55470;BME280;41334;47.872;16.384;2023-11-21T21:44:09;98889.19;;;4.04;84.83
55470;BME280;41334;47.872;16.384;2023-11-21T21:49:11;98904.00;;;4.03;86.74
55470;BME280;41334;47.872;16.384;2023-11-21T21:54:14;98904.84;;;3.99;85.71
55470;BME280;41334;47.872;16.384;2023-11-21T21:59:35;98899.91;;;4.01;86.07
55470;BME280;41334;47.872;16.384;2023-11-21T22:04:42;98902.13;;;3.99;86.20
55470;BME280;41334;47.872;16.384;2023-11-21T22:15:38;98901.25;;;4.09;84.35
55470;BME280;41334;47.872;16.384;2023-11-21T23:11:25;98919.34;;;4.88;83.47
55470;BME280;41334;47.872;16.384;2023-11-21T23:16:32;98922.22;;;5.02;83.77
55470;BME280;41334;47.872;16.384;2023-11-21T23:21:35;98930.13;;;5.08;83.39
55470;BME280;41334;47.872;16.384;2023-11-21T23:26:42;98926.13;;;5.25;82.68
55470;BME280;41334;47.872;16.384;2023-11-21T23:31:45;98920.53;;;5.35;82.35
55470;BME280;41334;47.872;16.384;2023-11-21T23:36:47;98925.84;;;5.50;81.66
55470;BME280;41334;47.872;16.384;2023-11-21T23:41:49;98923.91;;;5.51;81.71
55470;BME280;41334;47.872;16.384;2023-11-21T23:46:51;98921.09;;;5.56;81.74
55470;BME280;41334;47.872;16.384;2023-11-21T23:51:53;98927.09;;;5.63;81.36
55470;BME280;41334;47.872;16.384;2023-11-21T23:56:54;98937.47;;;5.66;81.02
